sensor_id;sensor_type;location;lat;lon;timestamp;P1;durP1;ratioP1;P2;durP2;ratioP2
57663;SDS011;43493;53.098;6.064;2023-07-30T00:02:04;24.13;;;6.80;;
57663;SDS011;43493;53.098;6.064;2023-07-30T00:04:30;27.83;;;7.43;;
57663;SDS011;43493;53.098;6.064;2023-07-30T00:06:56;25.37;;;7.03;;
57663;SDS011;43493;53.098;6.064;2023-07-30T00:09:21;24.43;;;7.60;;
57663;SDS011;43493;53.098;6.064;2023-07-30T00:11:47;33.17;;;7.33;;
57663;SDS011;43493;53.098;6.064;2023-07-30T00:14:13;25.67;;;6.43;;
57663;SDS011;43493;53.098;6.064;2023-07-30T00:16:45;26.53;;;7.40;;
57663;SDS011;43493;53.098;6.064;2023-07-30T00:19:18;27.23;;;7.07;;
57663;SDS011;43493;53.098;6.064;2023-07-30T00:21:43;26.03;;;7.97;;
57663;SDS011;43493;53.098;6.064;2023-07-30T00:24:12;25.93;;;6.60;;
57663;SDS011;43493;53.098;6.064;2023-07-30T00:26:39;22.83;;;6.93;;
57663;SDS011;43493;53.098;6.064;2023-07-30T00:29:05;24.80;;;7.13;;
57663;SDS011;43493;53.098;6.064;2023-07-30T00:31:31;25.63;;;7.13;;
57663;SDS011;43493;53.098;6.064;2023-07-30T00:33:56;20.47;;;7.77;;
57663;SDS011;43493;53.098;6.064;2023-07-30T00:36:22;26.97;;;6.50;;
57663;SDS011;43493;53.098;6.064;2023-07-30T00:38:48;29.93;;;7.03;;
57663;SDS011;43493;53.098;6.064;2023-07-30T00:41:13;23.03;;;6.80;;
57663;SDS011;43493;53.098;6.064;2023-07-30T00:43:39;29.33;;;7.13;;
57663;SDS011;43493;53.098;6.064;2023-07-30T00:46:05;22.63;;;6.23;;
57663;SDS011;43493;53.098;6.064;2023-07-30T00:48:31;29.20;;;6.93;;
57663;SDS011;43493;53.098;6.064;2023-07-30T00:50:57;25.73;;;6.70;;
57663;SDS011;43493;53.098;6.064;2023-07-30T00:53:23;26.63;;;7.03;;
57663;SDS011;43493;53.098;6.064;2023-07-30T00:55:51;21.53;;;7.23;;
57663;SDS011;43493;53.098;6.064;2023-07-30T00:58:17;29.17;;;6.90;;
57663;SDS011;43493;53.098;6.064;2023-07-30T01:00:45;21.60;;;6.10;;
57663;SDS011;43493;53.098;6.064;2023-07-30T01:03:11;24.60;;;5.60;;
57663;SDS011;43493;53.098;6.064;2023-07-30T01:05:37;22.47;;;6.03;;
57663;SDS011;43493;53.098;6.064;2023-07-30T01:08:03;25.43;;;6.63;;
57663;SDS011;43493;53.098;6.064;2023-07-30T01:10:35;24.67;;;5.90;;
57663;SDS011;43493;53.098;6.064;2023-07-30T01:13:05;24.03;;;6.60;;
57663;SDS011;43493;53.098;6.064;2023-07-30T01:15:34;16.70;;;5.97;;
57663;SDS011;43493;53.098;6.064;2023-07-30T01:18:02;23.97;;;6.13;;
57663;SDS011;43493;53.098;6.064;2023-07-30T01:20:31;24.57;;;6.60;;
57663;SDS011;43493;53.098;6.064;2023-07-30T01:23:03;22.10;;;6.13;;
57663;SDS011;43493;53.098;6.064;2023-07-30T01:25:41;26.37;;;6.90;;
57663;SDS011;43493;53.098;6.064;2023-07-30T01:28:12;21.50;;;6.23;;
57663;SDS011;43493;53.098;6.064;2023-07-30T01:30:45;21.58;;;6.05;;
57663;SDS011;43493;53.098;6.064;2023-07-30T01:33:17;23.73;;;6.70;;
57663;SDS011;43493;53.098;6.064;2023-07-30T01:36:01;22.67;;;7.10;;
57663;SDS011;43493;53.098;6.064;2023-07-30T01:38:41;22.67;;;6.43;;
57663;SDS011;43493;53.098;6.064;2023-07-30T01:41:09;23.40;;;7.03;;
57663;SDS011;43493;53.098;6.064;2023-07-30T01:43:37;22.17;;;6.60;;
57663;SDS011;43493;53.098;6.064;2023-07-30T01:46:05;21.27;;;7.23;;
57663;SDS011;43493;53.098;6.064;2023-07-30T01:48:31;20.07;;;7.00;;
57663;SDS011;43493;53.098;6.064;2023-07-30T01:51:04;22.60;;;6.80;;
57663;SDS011;43493;53.098;6.064;2023-07-30T01:53:39;21.60;;;7.07;;
57663;SDS011;43493;53.098;6.064;2023-07-30T01:56:05;18.70;;;7.13;;
57663;SDS011;43493;53.098;6.064;2023-07-30T01:58:38;20.77;;;6.53;;
57663;SDS011;43493;53.098;6.064;2023-07-30T02:01:08;23.05;;;7.07;;
57663;SDS011;43493;53.098;6.064;2023-07-30T02:03:35;24.83;;;7.37;;
57663;SDS011;43493;53.098;6.064;2023-07-30T02:06:07;23.90;;;6.33;;
57663;SDS011;43493;53.098;6.064;2023-07-30T02:08:33;17.57;;;6.83;;
57663;SDS011;43493;53.098;6.064;2023-07-30T02:11:02;20.20;;;6.67;;
57663;SDS011;43493;53.098;6.064;2023-07-30T02:13:35;24.30;;;7.57;;
57663;SDS011;43493;53.098;6.064;2023-07-30T02:16:04;21.60;;;7.53;;
57663;SDS011;43493;53.098;6.064;2023-07-30T02:18:31;18.03;;;7.17;;
57663;SDS011;43493;53.098;6.064;2023-07-30T02:21:03;20.73;;;7.37;;
57663;SDS011;43493;53.098;6.064;2023-07-30T02:23:28;20.90;;;6.53;;
57663;SDS011;43493;53.098;6.064;2023-07-30T02:25:54;16.17;;;6.53;;
57663;SDS011;43493;53.098;6.064;2023-07-30T02:28:23;23.17;;;7.20;;
57663;SDS011;43493;53.098;6.064;2023-07-30T02:30:52;17.97;;;6.73;;
57663;SDS011;43493;53.098;6.064;2023-07-30T02:33:18;22.20;;;7.63;;
57663;SDS011;43493;53.098;6.064;2023-07-30T02:35:45;18.03;;;7.40;;
57663;SDS011;43493;53.098;6.064;2023-07-30T02:38:11;15.40;;;6.50;;
57663;SDS011;43493;53.098;6.064;2023-07-30T02:40:37;18.70;;;6.23;;
57663;SDS011;43493;53.098;6.064;2023-07-30T02:43:02;19.23;;;6.93;;
57663;SDS011;43493;53.098;6.064;2023-07-30T02:45:29;20.77;;;8.03;;
57663;SDS011;43493;53.098;6.064;2023-07-30T02:47:55;18.43;;;7.57;;
57663;SDS011;43493;53.098;6.064;2023-07-30T02:50:20;23.13;;;7.23;;
57663;SDS011;43493;53.098;6.064;2023-07-30T02:52:46;23.10;;;7.27;;
57663;SDS011;43493;53.098;6.064;2023-07-30T02:55:12;22.60;;;6.93;;
57663;SDS011;43493;53.098;6.064;2023-07-30T02:57:37;23.57;;;6.87;;
57663;SDS011;43493;53.098;6.064;2023-07-30T03:00:03;22.87;;;7.53;;
57663;SDS011;43493;53.098;6.064;2023-07-30T03:02:29;17.33;;;6.67;;
57663;SDS011;43493;53.098;6.064;2023-07-30T03:04:55;19.57;;;6.90;;
57663;SDS011;43493;53.098;6.064;2023-07-30T03:07:21;20.40;;;7.50;;
57663;SDS011;43493;53.098;6.064;2023-07-30T03:09:47;22.60;;;6.97;;
57663;SDS011;43493;53.098;6.064;2023-07-30T03:12:13;21.27;;;6.83;;
57663;SDS011;43493;53.098;6.064;2023-07-30T03:14:38;22.33;;;7.03;;
57663;SDS011;43493;53.098;6.064;2023-07-30T03:17:04;19.67;;;6.57;;
57663;SDS011;43493;53.098;6.064;2023-07-30T03:19:30;21.70;;;6.03;;
57663;SDS011;43493;53.098;6.064;2023-07-30T03:21:56;19.73;;;6.37;;
57663;SDS011;43493;53.098;6.064;2023-07-30T03:24:22;21.30;;;6.87;;
57663;SDS011;43493;53.098;6.064;2023-07-30T03:26:47;18.40;;;6.93;;
57663;SDS011;43493;53.098;6.064;2023-07-30T03:29:14;22.43;;;6.63;;
57663;SDS011;43493;53.098;6.064;2023-07-30T03:31:40;19.10;;;6.20;;
57663;SDS011;43493;53.098;6.064;2023-07-30T03:34:05;22.73;;;6.10;;
57663;SDS011;43493;53.098;6.064;2023-07-30T03:36:31;20.83;;;6.73;;
57663;SDS011;43493;53.098;6.064;2023-07-30T03:38:57;23.60;;;5.90;;
57663;SDS011;43493;53.098;6.064;2023-07-30T03:41:22;17.67;;;4.90;;
57663;SDS011;43493;53.098;6.064;2023-07-30T03:43:48;25.03;;;7.13;;
57663;SDS011;43493;53.098;6.064;2023-07-30T03:46:14;22.50;;;5.73;;
57663;SDS011;43493;53.098;6.064;2023-07-30T03:48:40;23.73;;;5.77;;
57663;SDS011;43493;53.098;6.064;2023-07-30T03:51:12;22.60;;;5.77;;
57663;SDS011;43493;53.098;6.064;2023-07-30T03:53:38;20.10;;;6.50;;
57663;SDS011;43493;53.098;6.064;2023-07-30T03:56:05;25.00;;;5.40;;
57663;SDS011;43493;53.098;6.064;2023-07-30T03:58:31;21.13;;;5.80;;
57663;SDS011;43493;53.098;6.064;2023-07-30T04:00:57;16.60;;;5.10;;
57663;SDS011;43493;53.098;6.064;2023-07-30T04:03:22;20.63;;;5.37;;
57663;SDS011;43493;53.098;6.064;2023-07-30T04:05:48;19.60;;;5.40;;
57663;SDS011;43493;53.098;6.064;2023-07-30T04:08:15;20.30;;;5.17;;
57663;SDS011;43493;53.098;6.064;2023-07-30T04:10:41;16.03;;;4.73;;
57663;SDS011;43493;53.098;6.064;2023-07-30T04:13:07;15.67;;;4.20;;
57663;SDS011;43493;53.098;6.064;2023-07-30T04:15:33;15.83;;;4.00;;
57663;SDS011;43493;53.098;6.064;2023-07-30T04:17:59;18.37;;;3.70;;
57663;SDS011;43493;53.098;6.064;2023-07-30T04:20:24;17.53;;;4.47;;
57663;SDS011;43493;53.098;6.064;2023-07-30T04:22:51;16.63;;;4.50;;
57663;SDS011;43493;53.098;6.064;2023-07-30T04:25:17;17.40;;;4.30;;
57663;SDS011;43493;53.098;6.064;2023-07-30T04:27:43;16.13;;;3.50;;
57663;SDS011;43493;53.098;6.064;2023-07-30T04:30:09;17.40;;;3.70;;
57663;SDS011;43493;53.098;6.064;2023-07-30T04:32:35;16.23;;;3.43;;
57663;SDS011;43493;53.098;6.064;2023-07-30T04:35:02;11.70;;;3.30;;
57663;SDS011;43493;53.098;6.064;2023-07-30T04:37:29;13.67;;;3.77;;
57663;SDS011;43493;53.098;6.064;2023-07-30T04:39:58;15.87;;;3.90;;
57663;SDS011;43493;53.098;6.064;2023-07-30T04:42:24;12.93;;;2.93;;
57663;SDS011;43493;53.098;6.064;2023-07-30T04:44:49;12.70;;;4.03;;
57663;SDS011;43493;53.098;6.064;2023-07-30T04:47:15;12.27;;;3.07;;
57663;SDS011;43493;53.098;6.064;2023-07-30T04:49:41;11.00;;;2.90;;
57663;SDS011;43493;53.098;6.064;2023-07-30T04:52:07;14.63;;;3.30;;
57663;SDS011;43493;53.098;6.064;2023-07-30T04:54:33;13.23;;;3.53;;
57663;SDS011;43493;53.098;6.064;2023-07-30T04:57:01;10.67;;;2.70;;
57663;SDS011;43493;53.098;6.064;2023-07-30T04:59:27;11.07;;;3.10;;
57663;SDS011;43493;53.098;6.064;2023-07-30T05:01:53;9.83;;;2.67;;
57663;SDS011;43493;53.098;6.064;2023-07-30T05:04:19;11.90;;;2.63;;
57663;SDS011;43493;53.098;6.064;2023-07-30T05:06:44;12.17;;;2.63;;
57663;SDS011;43493;53.098;6.064;2023-07-30T05:09:13;10.70;;;2.63;;
57663;SDS011;43493;53.098;6.064;2023-07-30T05:11:39;11.30;;;2.50;;
57663;SDS011;43493;53.098;6.064;2023-07-30T05:14:04;13.30;;;2.70;;
57663;SDS011;43493;53.098;6.064;2023-07-30T05:16:30;11.83;;;3.80;;
57663;SDS011;43493;53.098;6.064;2023-07-30T05:18:56;9.67;;;2.70;;
57663;SDS011;43493;53.098;6.064;2023-07-30T05:21:21;10.80;;;2.77;;
57663;SDS011;43493;53.098;6.064;2023-07-30T05:23:47;12.40;;;3.27;;
57663;SDS011;43493;53.098;6.064;2023-07-30T05:26:13;11.93;;;2.67;;
57663;SDS011;43493;53.098;6.064;2023-07-30T05:28:38;12.47;;;2.90;;
57663;SDS011;43493;53.098;6.064;2023-07-30T05:31:04;10.73;;;2.73;;
57663;SDS011;43493;53.098;6.064;2023-07-30T05:33:30;11.10;;;2.67;;
57663;SDS011;43493;53.098;6.064;2023-07-30T05:35:56;12.23;;;2.50;;
57663;SDS011;43493;53.098;6.064;2023-07-30T05:38:21;9.97;;;2.83;;
57663;SDS011;43493;53.098;6.064;2023-07-30T05:40:47;10.37;;;2.40;;
57663;SDS011;43493;53.098;6.064;2023-07-30T05:43:13;9.43;;;2.20;;
57663;SDS011;43493;53.098;6.064;2023-07-30T05:45:39;10.30;;;2.47;;
57663;SDS011;43493;53.098;6.064;2023-07-30T05:48:04;14.00;;;3.00;;
57663;SDS011;43493;53.098;6.064;2023-07-30T05:50:30;9.03;;;2.27;;
57663;SDS011;43493;53.098;6.064;2023-07-30T05:52:56;11.70;;;2.43;;
57663;SDS011;43493;53.098;6.064;2023-07-30T05:55:22;10.97;;;2.87;;
57663;SDS011;43493;53.098;6.064;2023-07-30T05:57:48;11.47;;;2.80;;
57663;SDS011;43493;53.098;6.064;2023-07-30T06:00:13;12.37;;;2.97;;
57663;SDS011;43493;53.098;6.064;2023-07-30T06:02:39;11.87;;;2.80;;
57663;SDS011;43493;53.098;6.064;2023-07-30T06:05:05;10.43;;;2.53;;
57663;SDS011;43493;53.098;6.064;2023-07-30T06:07:31;11.73;;;3.10;;
57663;SDS011;43493;53.098;6.064;2023-07-30T06:09:57;12.17;;;3.10;;
57663;SDS011;43493;53.098;6.064;2023-07-30T06:12:22;13.60;;;2.93;;
57663;SDS011;43493;53.098;6.064;2023-07-30T06:14:48;12.13;;;3.13;;
57663;SDS011;43493;53.098;6.064;2023-07-30T06:17:14;10.67;;;2.33;;
57663;SDS011;43493;53.098;6.064;2023-07-30T06:19:43;12.77;;;2.80;;
57663;SDS011;43493;53.098;6.064;2023-07-30T06:22:08;8.57;;;2.50;;
57663;SDS011;43493;53.098;6.064;2023-07-30T06:24:34;11.70;;;3.43;;
57663;SDS011;43493;53.098;6.064;2023-07-30T06:27:00;11.57;;;2.53;;
57663;SDS011;43493;53.098;6.064;2023-07-30T06:29:25;11.17;;;2.57;;
57663;SDS011;43493;53.098;6.064;2023-07-30T06:31:51;10.60;;;2.83;;
57663;SDS011;43493;53.098;6.064;2023-07-30T06:34:17;11.67;;;3.50;;
57663;SDS011;43493;53.098;6.064;2023-07-30T06:36:42;10.60;;;3.10;;
57663;SDS011;43493;53.098;6.064;2023-07-30T06:39:08;10.60;;;2.60;;
57663;SDS011;43493;53.098;6.064;2023-07-30T06:41:34;9.33;;;3.20;;
57663;SDS011;43493;53.098;6.064;2023-07-30T06:43:59;9.37;;;3.03;;
57663;SDS011;43493;53.098;6.064;2023-07-30T06:46:25;12.40;;;2.70;;
57663;SDS011;43493;53.098;6.064;2023-07-30T06:48:51;11.73;;;2.87;;
57663;SDS011;43493;53.098;6.064;2023-07-30T06:51:18;10.53;;;2.87;;
57663;SDS011;43493;53.098;6.064;2023-07-30T06:53:45;10.20;;;3.20;;
57663;SDS011;43493;53.098;6.064;2023-07-30T06:56:12;8.43;;;3.00;;
57663;SDS011;43493;53.098;6.064;2023-07-30T06:58:39;11.70;;;2.90;;
57663;SDS011;43493;53.098;6.064;2023-07-30T07:01:34;9.37;;;2.43;;
57663;SDS011;43493;53.098;6.064;2023-07-30T07:04:13;8.70;;;2.37;;
57663;SDS011;43493;53.098;6.064;2023-07-30T07:07:16;8.50;;;2.27;;
57663;SDS011;43493;53.098;6.064;2023-07-30T07:09:47;10.43;;;3.17;;
57663;SDS011;43493;53.098;6.064;2023-07-30T07:12:16;8.70;;;3.00;;
57663;SDS011;43493;53.098;6.064;2023-07-30T07:14:42;11.23;;;2.83;;
57663;SDS011;43493;53.098;6.064;2023-07-30T07:17:08;11.03;;;2.70;;
57663;SDS011;43493;53.098;6.064;2023-07-30T07:19:34;9.97;;;2.60;;
57663;SDS011;43493;53.098;6.064;2023-07-30T07:22:03;12.97;;;2.67;;
57663;SDS011;43493;53.098;6.064;2023-07-30T07:24:29;10.63;;;2.67;;
57663;SDS011;43493;53.098;6.064;2023-07-30T07:26:56;8.60;;;2.30;;
57663;SDS011;43493;53.098;6.064;2023-07-30T07:29:22;10.83;;;3.00;;
57663;SDS011;43493;53.098;6.064;2023-07-30T07:31:47;11.63;;;2.47;;
57663;SDS011;43493;53.098;6.064;2023-07-30T07:34:13;13.53;;;3.13;;
57663;SDS011;43493;53.098;6.064;2023-07-30T07:36:39;11.63;;;2.77;;
57663;SDS011;43493;53.098;6.064;2023-07-30T07:39:05;11.03;;;2.53;;
57663;SDS011;43493;53.098;6.064;2023-07-30T07:41:31;10.87;;;2.30;;
57663;SDS011;43493;53.098;6.064;2023-07-30T07:43:57;9.20;;;2.47;;
57663;SDS011;43493;53.098;6.064;2023-07-30T07:46:23;10.97;;;3.03;;
57663;SDS011;43493;53.098;6.064;2023-07-30T07:48:49;10.47;;;2.60;;
57663;SDS011;43493;53.098;6.064;2023-07-30T07:51:15;14.07;;;3.17;;
57663;SDS011;43493;53.098;6.064;2023-07-30T07:53:40;10.73;;;3.03;;
57663;SDS011;43493;53.098;6.064;2023-07-30T07:56:06;10.67;;;2.40;;
57663;SDS011;43493;53.098;6.064;2023-07-30T07:58:32;12.97;;;3.60;;
57663;SDS011;43493;53.098;6.064;2023-07-30T08:00:59;13.50;;;2.90;;
57663;SDS011;43493;53.098;6.064;2023-07-30T08:03:25;10.93;;;2.27;;
57663;SDS011;43493;53.098;6.064;2023-07-30T08:05:53;11.70;;;2.50;;
57663;SDS011;43493;53.098;6.064;2023-07-30T08:08:19;11.30;;;2.87;;
57663;SDS011;43493;53.098;6.064;2023-07-30T08:10:45;9.57;;;2.10;;
57663;SDS011;43493;53.098;6.064;2023-07-30T08:13:13;12.40;;;2.77;;
57663;SDS011;43493;53.098;6.064;2023-07-30T08:15:39;12.07;;;2.57;;
57663;SDS011;43493;53.098;6.064;2023-07-30T08:18:05;10.83;;;2.80;;
57663;SDS011;43493;53.098;6.064;2023-07-30T08:20:30;13.07;;;3.33;;
57663;SDS011;43493;53.098;6.064;2023-07-30T08:22:56;13.27;;;2.63;;
57663;SDS011;43493;53.098;6.064;2023-07-30T08:25:22;13.07;;;3.10;;
57663;SDS011;43493;53.098;6.064;2023-07-30T08:27:47;11.60;;;2.77;;
57663;SDS011;43493;53.098;6.064;2023-07-30T08:30:13;11.20;;;2.57;;
57663;SDS011;43493;53.098;6.064;2023-07-30T08:32:39;10.77;;;2.97;;
57663;SDS011;43493;53.098;6.064;2023-07-30T08:35:06;12.40;;;3.20;;
57663;SDS011;43493;53.098;6.064;2023-07-30T08:37:33;15.53;;;2.90;;
57663;SDS011;43493;53.098;6.064;2023-07-30T08:39:58;9.67;;;3.13;;
57663;SDS011;43493;53.098;6.064;2023-07-30T08:42:24;11.13;;;2.67;;
57663;SDS011;43493;53.098;6.064;2023-07-30T08:44:50;10.17;;;2.43;;
57663;SDS011;43493;53.098;6.064;2023-07-30T08:47:15;13.07;;;2.80;;
57663;SDS011;43493;53.098;6.064;2023-07-30T08:49:41;8.07;;;2.40;;
57663;SDS011;43493;53.098;6.064;2023-07-30T08:52:10;7.60;;;2.20;;
57663;SDS011;43493;53.098;6.064;2023-07-30T08:54:36;7.60;;;2.10;;
57663;SDS011;43493;53.098;6.064;2023-07-30T08:57:03;10.50;;;2.60;;
57663;SDS011;43493;53.098;6.064;2023-07-30T08:59:31;7.73;;;2.10;;
57663;SDS011;43493;53.098;6.064;2023-07-30T09:02:17;7.50;;;1.93;;
57663;SDS011;43493;53.098;6.064;2023-07-30T09:05:04;9.47;;;2.43;;
57663;SDS011;43493;53.098;6.064;2023-07-30T09:07:31;9.10;;;2.10;;
57663;SDS011;43493;53.098;6.064;2023-07-30T09:09:56;8.17;;;2.20;;
57663;SDS011;43493;53.098;6.064;2023-07-30T09:12:28;8.13;;;2.37;;
57663;SDS011;43493;53.098;6.064;2023-07-30T09:14:57;5.85;;;1.90;;
57663;SDS011;43493;53.098;6.064;2023-07-30T09:17:23;8.60;;;2.57;;
57663;SDS011;43493;53.098;6.064;2023-07-30T09:19:50;7.00;;;2.00;;
57663;SDS011;43493;53.098;6.064;2023-07-30T09:22:24;6.67;;;2.10;;
57663;SDS011;43493;53.098;6.064;2023-07-30T09:24:51;6.10;;;1.90;;
57663;SDS011;43493;53.098;6.064;2023-07-30T09:27:19;8.27;;;1.83;;
57663;SDS011;43493;53.098;6.064;2023-07-30T09:29:54;8.57;;;2.30;;
57663;SDS011;43493;53.098;6.064;2023-07-30T09:32:31;8.07;;;2.10;;
57663;SDS011;43493;53.098;6.064;2023-07-30T09:35:07;8.57;;;2.00;;
57663;SDS011;43493;53.098;6.064;2023-07-30T09:37:38;9.40;;;2.70;;
57663;SDS011;43493;53.098;6.064;2023-07-30T09:40:06;9.10;;;2.10;;
57663;SDS011;43493;53.098;6.064;2023-07-30T09:42:37;10.07;;;3.07;;
57663;SDS011;43493;53.098;6.064;2023-07-30T09:45:05;7.40;;;2.27;;
57663;SDS011;43493;53.098;6.064;2023-07-30T09:47:36;9.23;;;2.43;;
57663;SDS011;43493;53.098;6.064;2023-07-30T09:50:02;11.70;;;1.80;;
57663;SDS011;43493;53.098;6.064;2023-07-30T09:52:29;8.87;;;2.07;;
57663;SDS011;43493;53.098;6.064;2023-07-30T09:54:57;7.97;;;2.30;;
57663;SDS011;43493;53.098;6.064;2023-07-30T09:57:23;9.17;;;2.50;;
57663;SDS011;43493;53.098;6.064;2023-07-30T09:59:49;12.43;;;3.17;;
57663;SDS011;43493;53.098;6.064;2023-07-30T10:02:15;13.17;;;2.70;;
57663;SDS011;43493;53.098;6.064;2023-07-30T10:04:42;11.60;;;2.37;;
57663;SDS011;43493;53.098;6.064;2023-07-30T10:07:18;7.90;;;2.30;;
57663;SDS011;43493;53.098;6.064;2023-07-30T10:09:47;12.13;;;2.83;;
57663;SDS011;43493;53.098;6.064;2023-07-30T10:12:16;10.17;;;2.50;;
57663;SDS011;43493;53.098;6.064;2023-07-30T10:14:45;14.47;;;2.80;;
57663;SDS011;43493;53.098;6.064;2023-07-30T10:17:23;11.40;;;2.53;;
57663;SDS011;43493;53.098;6.064;2023-07-30T10:19:49;9.23;;;2.67;;
57663;SDS011;43493;53.098;6.064;2023-07-30T10:25:02;11.27;;;2.90;;
57663;SDS011;43493;53.098;6.064;2023-07-30T10:27:36;12.53;;;2.40;;
57663;SDS011;43493;53.098;6.064;2023-07-30T10:30:18;9.03;;;2.83;;
57663;SDS011;43493;53.098;6.064;2023-07-30T10:35:41;8.13;;;2.40;;
57663;SDS011;43493;53.098;6.064;2023-07-30T10:41:05;9.10;;;2.13;;
57663;SDS011;43493;53.098;6.064;2023-07-30T10:43:33;11.30;;;2.43;;
57663;SDS011;43493;53.098;6.064;2023-07-30T10:46:01;11.17;;;2.70;;
57663;SDS011;43493;53.098;6.064;2023-07-30T10:48:33;9.97;;;3.03;;
57663;SDS011;43493;53.098;6.064;2023-07-30T10:51:04;9.77;;;2.87;;
57663;SDS011;43493;53.098;6.064;2023-07-30T10:53:31;9.27;;;2.80;;
57663;SDS011;43493;53.098;6.064;2023-07-30T10:55:58;11.27;;;2.47;;
57663;SDS011;43493;53.098;6.064;2023-07-30T10:58:27;10.23;;;2.33;;
57663;SDS011;43493;53.098;6.064;2023-07-30T11:00:54;10.40;;;3.20;;
57663;SDS011;43493;53.098;6.064;2023-07-30T11:03:20;7.63;;;2.50;;
57663;SDS011;43493;53.098;6.064;2023-07-30T11:05:46;9.53;;;2.50;;
57663;SDS011;43493;53.098;6.064;2023-07-30T11:08:13;9.27;;;2.40;;
57663;SDS011;43493;53.098;6.064;2023-07-30T11:10:45;7.27;;;2.10;;
57663;SDS011;43493;53.098;6.064;2023-07-30T11:13:14;11.53;;;2.70;;
57663;SDS011;43493;53.098;6.064;2023-07-30T11:15:40;10.80;;;2.63;;
57663;SDS011;43493;53.098;6.064;2023-07-30T11:18:10;15.63;;;2.97;;
57663;SDS011;43493;53.098;6.064;2023-07-30T11:20:37;13.27;;;2.97;;
57663;SDS011;43493;53.098;6.064;2023-07-30T11:23:16;7.53;;;2.43;;
57663;SDS011;43493;53.098;6.064;2023-07-30T11:25:49;9.87;;;2.50;;
57663;SDS011;43493;53.098;6.064;2023-07-30T11:28:26;10.30;;;2.17;;
57663;SDS011;43493;53.098;6.064;2023-07-30T11:30:57;7.10;;;1.97;;
57663;SDS011;43493;53.098;6.064;2023-07-30T11:33:25;11.43;;;2.60;;
57663;SDS011;43493;53.098;6.064;2023-07-30T11:35:52;13.63;;;2.80;;
57663;SDS011;43493;53.098;6.064;2023-07-30T11:38:19;8.47;;;2.43;;
57663;SDS011;43493;53.098;6.064;2023-07-30T11:40:46;14.30;;;3.27;;
57663;SDS011;43493;53.098;6.064;2023-07-30T11:43:15;10.30;;;2.20;;
57663;SDS011;43493;53.098;6.064;2023-07-30T11:45:40;8.80;;;2.37;;
57663;SDS011;43493;53.098;6.064;2023-07-30T11:48:07;12.93;;;2.80;;
57663;SDS011;43493;53.098;6.064;2023-07-30T11:50:47;10.57;;;2.47;;
57663;SDS011;43493;53.098;6.064;2023-07-30T11:53:14;9.97;;;2.73;;
57663;SDS011;43493;53.098;6.064;2023-07-30T11:55:41;11.00;;;2.43;;
57663;SDS011;43493;53.098;6.064;2023-07-30T11:58:08;12.60;;;3.10;;
57663;SDS011;43493;53.098;6.064;2023-07-30T12:00:38;12.63;;;3.47;;
57663;SDS011;43493;53.098;6.064;2023-07-30T12:03:06;13.27;;;3.17;;
57663;SDS011;43493;53.098;6.064;2023-07-30T12:05:35;10.00;;;2.80;;
57663;SDS011;43493;53.098;6.064;2023-07-30T12:08:03;11.43;;;2.90;;
57663;SDS011;43493;53.098;6.064;2023-07-30T12:13:28;16.10;;;3.97;;
57663;SDS011;43493;53.098;6.064;2023-07-30T12:15:54;9.50;;;2.47;;
57663;SDS011;43493;53.098;6.064;2023-07-30T12:18:21;14.03;;;3.03;;
57663;SDS011;43493;53.098;6.064;2023-07-30T12:20:49;8.00;;;2.20;;
57663;SDS011;43493;53.098;6.064;2023-07-30T12:23:16;8.33;;;1.97;;
57663;SDS011;43493;53.098;6.064;2023-07-30T12:25:42;8.30;;;2.67;;
57663;SDS011;43493;53.098;6.064;2023-07-30T12:28:08;10.23;;;2.73;;
57663;SDS011;43493;53.098;6.064;2023-07-30T12:30:34;11.60;;;2.93;;
57663;SDS011;43493;53.098;6.064;2023-07-30T12:33:02;7.23;;;1.87;;
57663;SDS011;43493;53.098;6.064;2023-07-30T12:35:28;10.97;;;2.47;;
57663;SDS011;43493;53.098;6.064;2023-07-30T12:37:54;8.43;;;2.27;;
57663;SDS011;43493;53.098;6.064;2023-07-30T12:40:20;12.43;;;2.53;;
57663;SDS011;43493;53.098;6.064;2023-07-30T12:42:46;6.90;;;1.97;;
57663;SDS011;43493;53.098;6.064;2023-07-30T12:45:12;9.50;;;2.57;;
57663;SDS011;43493;53.098;6.064;2023-07-30T12:47:37;8.60;;;2.47;;
57663;SDS011;43493;53.098;6.064;2023-07-30T12:50:03;7.00;;;2.30;;
57663;SDS011;43493;53.098;6.064;2023-07-30T12:52:31;9.50;;;2.37;;
57663;SDS011;43493;53.098;6.064;2023-07-30T12:54:58;9.63;;;2.30;;
57663;SDS011;43493;53.098;6.064;2023-07-30T12:57:23;8.63;;;2.00;;
57663;SDS011;43493;53.098;6.064;2023-07-30T12:59:49;9.60;;;2.23;;
57663;SDS011;43493;53.098;6.064;2023-07-30T13:02:15;11.57;;;2.47;;
57663;SDS011;43493;53.098;6.064;2023-07-30T13:04:40;8.30;;;1.90;;
57663;SDS011;43493;53.098;6.064;2023-07-30T13:07:06;9.77;;;2.37;;
57663;SDS011;43493;53.098;6.064;2023-07-30T13:09:33;8.97;;;2.80;;
57663;SDS011;43493;53.098;6.064;2023-07-30T13:11:59;10.20;;;2.63;;
57663;SDS011;43493;53.098;6.064;2023-07-30T13:14:25;8.23;;;2.57;;
57663;SDS011;43493;53.098;6.064;2023-07-30T13:16:53;12.50;;;2.57;;
57663;SDS011;43493;53.098;6.064;2023-07-30T13:19:19;6.30;;;2.07;;
57663;SDS011;43493;53.098;6.064;2023-07-30T13:21:45;9.20;;;2.40;;
57663;SDS011;43493;53.098;6.064;2023-07-30T13:24:10;11.80;;;2.00;;
57663;SDS011;43493;53.098;6.064;2023-07-30T13:26:36;7.10;;;1.73;;
57663;SDS011;43493;53.098;6.064;2023-07-30T13:29:03;8.57;;;2.37;;
57663;SDS011;43493;53.098;6.064;2023-07-30T13:31:29;9.27;;;2.27;;
57663;SDS011;43493;53.098;6.064;2023-07-30T13:33:55;6.77;;;2.70;;
57663;SDS011;43493;53.098;6.064;2023-07-30T13:36:21;9.93;;;2.63;;
57663;SDS011;43493;53.098;6.064;2023-07-30T13:38:47;10.57;;;2.80;;
57663;SDS011;43493;53.098;6.064;2023-07-30T13:41:15;8.87;;;2.70;;
57663;SDS011;43493;53.098;6.064;2023-07-30T13:43:41;9.87;;;2.30;;
57663;SDS011;43493;53.098;6.064;2023-07-30T13:46:07;12.77;;;3.17;;
57663;SDS011;43493;53.098;6.064;2023-07-30T13:48:33;12.20;;;2.87;;
57663;SDS011;43493;53.098;6.064;2023-07-30T13:50:58;10.83;;;2.93;;
57663;SDS011;43493;53.098;6.064;2023-07-30T13:53:24;12.17;;;2.30;;
57663;SDS011;43493;53.098;6.064;2023-07-30T13:55:50;10.43;;;2.30;;
57663;SDS011;43493;53.098;6.064;2023-07-30T13:58:15;7.07;;;2.23;;
57663;SDS011;43493;53.098;6.064;2023-07-30T14:00:41;9.80;;;2.17;;
57663;SDS011;43493;53.098;6.064;2023-07-30T14:03:07;10.07;;;2.70;;
57663;SDS011;43493;53.098;6.064;2023-07-30T14:05:34;7.03;;;2.20;;
57663;SDS011;43493;53.098;6.064;2023-07-30T14:08:00;10.20;;;2.30;;
57663;SDS011;43493;53.098;6.064;2023-07-30T14:10:25;8.07;;;1.73;;
57663;SDS011;43493;53.098;6.064;2023-07-30T14:12:52;7.57;;;1.80;;
57663;SDS011;43493;53.098;6.064;2023-07-30T14:15:18;6.53;;;1.90;;
57663;SDS011;43493;53.098;6.064;2023-07-30T14:17:44;9.37;;;2.17;;
57663;SDS011;43493;53.098;6.064;2023-07-30T14:20:09;5.20;;;1.80;;
57663;SDS011;43493;53.098;6.064;2023-07-30T14:22:35;7.13;;;2.23;;
57663;SDS011;43493;53.098;6.064;2023-07-30T14:25:02;9.13;;;1.80;;
57663;SDS011;43493;53.098;6.064;2023-07-30T14:27:28;8.83;;;2.37;;
57663;SDS011;43493;53.098;6.064;2023-07-30T14:29:53;11.50;;;2.73;;
57663;SDS011;43493;53.098;6.064;2023-07-30T14:32:19;12.33;;;2.90;;
57663;SDS011;43493;53.098;6.064;2023-07-30T14:34:46;9.90;;;2.17;;
57663;SDS011;43493;53.098;6.064;2023-07-30T14:37:12;10.13;;;2.60;;
57663;SDS011;43493;53.098;6.064;2023-07-30T14:39:38;6.03;;;2.10;;
57663;SDS011;43493;53.098;6.064;2023-07-30T14:42:04;9.53;;;2.20;;
57663;SDS011;43493;53.098;6.064;2023-07-30T14:44:30;6.73;;;2.00;;
57663;SDS011;43493;53.098;6.064;2023-07-30T14:46:56;5.03;;;1.60;;
57663;SDS011;43493;53.098;6.064;2023-07-30T14:49:23;5.93;;;1.90;;
57663;SDS011;43493;53.098;6.064;2023-07-30T14:51:49;5.93;;;1.80;;